Flight Track Log - Related Links

Times and Time Zones

All times are in EDT time to prevent confusion due to time zone crossing. See the SWA22 flight status page for this flight to view local times or setup timezone preferences in your user account.

Time Position Orientation Groundspeed Altitude Reporting Facility
EDT Latitude Longitude Course Direction KTS MPH feet Rate Location/Type
Fri 02:31:24 PM 32.7833 -96.7833 128° Southeast 221 254 4,600  Level Dallas / Fort Worth TRACON
Fri 02:32:24 PM 32.7167 -96.7500 157° South 246 283 7,400 1,974 Climbing Dallas / Fort Worth TRACON
Fri 02:33:56 PM 32.6147 -96.7819 195° South 277 319 9,600 1,232 Climbing Fort Worth Center
Fri 02:34:55 PM 32.5961 -96.8561 253° West 253 291 10,500 1,600 Climbing Fort Worth Center
Fri 02:35:56 PM 32.6072 -96.9694 277° West 292 336 12,800 2,550 Climbing Fort Worth Center
Fri 02:36:55 PM 32.6617 -97.0531 308° West 311 358 15,600 2,700 Climbing Fort Worth Center
Fri 02:37:56 PM 32.7244 -97.1517 307° West 341 392 18,200 2,281 Climbing Fort Worth Center
Fri 02:38:56 PM 32.7789 -97.2356 308° West 359 413 20,200 2,017 Climbing Fort Worth Center
Fri 02:39:55 PM 32.8439 -97.3417 306° West 364 419 22,200 1,765 Climbing Fort Worth Center
Fri 02:40:55 PM 32.9022 -97.4381 306° West 379 436 23,700 1,400 Climbing Fort Worth Center
Fri 02:41:55 PM 32.9689 -97.5397 308° West 396 456 25,000 1,500 Climbing Fort Worth Center
Fri 02:42:55 PM 33.0356 -97.6439 307° West 401 461 26,700 1,636 Climbing Fort Worth Center
Fri 02:43:56 PM 33.0958 -97.7506 304° West 401 461 28,300 1,636 Climbing Fort Worth Center
Fri 02:44:56 PM 33.1394 -97.8822 292° West 388 447 30,000 1,714 Climbing Fort Worth Center
Fri 02:45:55 PM 33.1744 -97.9992 290° West 380 437 31,700 1,462 Climbing Fort Worth Center
Fri 02:46:55 PM 33.2092 -98.1111 290° West 370 426 32,900 1,150 Climbing Fort Worth Center
Fri 02:47:55 PM 33.2525 -98.2183 296° West 364 419 34,000 550 Climbing Fort Worth Center
Fri 02:48:55 PM 33.3122 -98.3183 306° West 364 419 34,000  Level Fort Worth Center
Fri 02:49:55 PM 33.3658 -98.4108 305° West 375 432 34,000  Level Fort Worth Center
Fri 02:50:56 PM 33.4275 -98.5136 306° West 382 440 34,000  Level Fort Worth Center
Fri 02:51:55 PM 33.4872 -98.6139 306° West 376 433 34,000  Level Fort Worth Center
Fri 02:52:55 PM 33.5489 -98.7169 306° West 381 438 34,000  Level Fort Worth Center
Fri 02:53:56 PM 33.6081 -98.8250 303° West 381 438 34,000  Level Fort Worth Center
Fri 02:54:55 PM 33.6717 -98.9261 307° West 381 438 34,000  Level Fort Worth Center
Fri 02:55:55 PM 33.7308 -99.0269 305° West 381 438 34,000  Level Fort Worth Center
Fri 02:56:56 PM 33.7900 -99.1281 305° West 373 429 34,000  Level Fort Worth Center
Fri 02:57:55 PM 33.8511 -99.2317 305° West 373 429 34,000  Level Fort Worth Center
Fri 02:58:55 PM 33.9103 -99.3331 305° West 378 435 34,000  Level Fort Worth Center
Fri 02:59:56 PM 33.9711 -99.4369 305° West 378 435 34,000  Level Fort Worth Center
Fri 03:00:55 PM 34.0322 -99.5361 307° West 378 435 34,000  Level Fort Worth Center
Fri 03:01:55 PM 34.0931 -99.6406 305° West 378 435 34,000  Level Fort Worth Center
Fri 03:02:56 PM 34.1558 -99.7400 307° West 383 441 34,000  Level Fort Worth Center
Fri 03:03:55 PM 34.2164 -99.8447 305° West 378 435 34,000  Level Fort Worth Center
Fri 03:04:55 PM 34.2772 -99.9419 307° West 378 435 34,000  Level Fort Worth Center
Fri 03:05:55 PM 34.3436 -100.0519 306° West 378 435 34,000  Level Fort Worth Center
Fri 03:06:55 PM 34.4061 -100.1544 306° West 373 429 34,000  Level Fort Worth Center
Fri 03:07:54 PM 34.4642 -100.2522 306° West 369 425 34,000 -1,091 Level Albuquerque Center
Fri 03:08:56 PM 34.5236 -100.3525 306° West 368 423 31,800 -2,371 Descending Albuquerque Center
Fri 03:09:58 PM 34.5833 -100.4525 306° West 367 422 29,100 -2,371 Descending Albuquerque Center
Fri 03:11:00 PM 34.6397 -100.5486 306° West 355 409 26,900 -1,500 Descending Albuquerque Center
Fri 03:12:02 PM 34.6953 -100.6422 306° West 345 397 26,000 -435 Descending Albuquerque Center
Fri 03:13:04 PM 34.7547 -100.7436 306° West 360 414 26,000 -1,839 Level Albuquerque Center
Fri 03:14:06 PM 34.8306 -100.8692 306° West 378 435 22,200 -3,387 Descending Albuquerque Center
Fri 03:15:08 PM 34.8936 -100.9775 305° West 390 449 19,000 -2,903 Descending Albuquerque Center
Fri 03:16:10 PM 34.9522 -101.0800 305° West 377 434 16,200 -3,000 Descending Albuquerque Center
Fri 03:17:12 PM 35.0083 -101.1767 305° West 357 411 12,800 -2,806 Descending Albuquerque Center
Fri 03:18:14 PM 35.0642 -101.2742 305° West 352 405 10,400 -1,366 Descending Albuquerque Center
Fri 03:19:15 PM 35.1150 -101.3603 306° West 330 380 10,000 -1,171 Descending Albuquerque Center
Fri 03:20:17 PM 35.1664 -101.4489 305° West 290 334 8,000 -1,500 Descending Albuquerque Center
Fri 03:21:19 PM 35.2092 -101.5228 305° West 277 319 6,900 -1,016 Descending Albuquerque Center
Fri 03:22:21 PM 35.2461 -101.5883 305° West 253 291 5,900 -960 Descending Albuquerque Center
Fri 03:23:24 PM 35.2708 -101.6403 300° West 217 250 4,900 -919 Descending Albuquerque Center
Fri 03:24:25 PM 35.2442 -101.6831 233° Southwest 167 192 4,000 -634 Descending Albuquerque Center
Fri 03:25:27 PM 35.2192 -101.7150 226° Southwest 145 167 3,600 -387 Descending Albuquerque Center

Login

Don't have an account? Register now (free) for customized features, flight alerts, and more!